Sunday, May 27, 2018, 1:50 PM EDT
Back to Local

KELM, Elmira County Airport

Location: Horseheads, NY, United States Lat: 42.167
Local Time: 1:50 PM EDT (17:50 GMT) Lon: -76.9
Time Zone: US/Eastern Elev: 954 ft

Show me the last for .
Show Decoded

2018-05-27 13:26 METAR KELM 271726Z 08005KT 9SM BKN012 BKN017 OVC025 21/19 A2997 RMK AO2 RAE16
                 P0000 T02110194 =
2018-05-27 12:53 METAR KELM 271653Z 08005KT 4SM -RA BR SCT012 BKN023 OVC028 21/19 A2998 RMK AO2
                 SLP147 P0002 T02060194 =
2018-05-27 12:30 METAR KELM 271630Z 03005KT 7SM -RA SCT013 BKN023 OVC047 21/19 A2999 RMK AO2
                 P0001 T02060189 =
2018-05-27 11:53 METAR KELM 271553Z 00000KT 5SM -RA BR OVC012 21/19 A2999 RMK AO2 RAE18B50 SLP149
                 P0000 T02060189 =
2018-05-27 11:03 METAR KELM 271503Z 15003KT 7SM -RA OVC013 20/19 A2999 RMK AO2 P0000 T02000189 =
2018-05-27 10:53 METAR KELM 271453Z VRB04KT 7SM -RA OVC015 20/18 A2999 RMK AO2 RAE06B23 SLP151
                 P0000 60001 T02000183 51006 =
2018-05-27 10:50 METAR KELM 271450Z 14005KT 9SM -RA OVC015 20/18 A2999 RMK AO2 RAE06B23 P0000 =
2018-05-27 09:53 METAR KELM 271353Z 00000KT 7SM -RA BKN011 OVC017 20/18 A2999 RMK AO2 RAB14
                 SLP150 P0001 T02000183 =
2018-05-27 09:42 METAR KELM 271342Z 00000KT 6SM -RA BR SCT012 BKN017 OVC055 20/18 A2999 RMK AO2
                 RAB14 P0001 T02000183 =
2018-05-27 08:53 METAR KELM 271253Z 00000KT 10SM BKN031 OVC080 20/18 A2997 RMK AO2 SLP144
                 T02000183 =
2018-05-27 07:53 METAR KELM 271153Z 04003KT 8SM SCT030 SCT042 OVC110 19/18 A2996 RMK AO2 SLP138
                 60002 70002 T01940183 10206 20178 53011 =
2018-05-27 06:53 METAR KELM 271053Z 00000KT 6SM BR SCT070 OVC110 19/18 A2995 RMK AO2 RAE46 SLP134
                 P0001 T01890183 =
2018-05-27 05:53 METAR KELM 270953Z 00000KT 10SM -RA OVC110 18/18 A2993 RMK AO2 SLP130 P0000
                 T01830183 =
2018-05-27 04:53 METAR KELM 270853Z AUTO 00000KT 10SM -RA OVC100 19/18 A2992 RMK AO2 RAB15 SLP127
                 P0001 60001 T01890178 51011 =
2018-05-27 03:53 METAR KELM 270753Z AUTO 00000KT 10SM OVC070 19/17 A2991 RMK AO2 RAE0656 SLP121
                 P0000 T01890172 =
2018-05-27 02:53 METAR KELM 270653Z AUTO 00000KT 10SM -RA OVC070 19/18 A2991 RMK AO2 RAE0559B29
                 SLP121 P0000 T01940178 =
2018-05-27 01:53 METAR KELM 270553Z AUTO 00000KT 10SM -RA BKN080 OVC100 19/17 A2989 RMK AO2 RAB34
                 SLP115 P0000 60000 T01940172 10261 20189 52002 =
2018-05-27 00:53 METAR KELM 270453Z AUTO 00000KT 10SM OVC095 20/17 A2989 RMK AO2 SLP113 T02000172
                 403060094 =
2018-05-26 23:53 METAR KELM 270353Z AUTO 13003KT 10SM SCT080 OVC100 21/17 A2989 RMK AO2 SLP114
                 T02110172 =
2018-05-26 22:53 METAR KELM 270253Z 21003KT 10SM OVC095 21/17 A2988 RMK AO2 SLP112 T02110172
                 51012 =
2018-05-26 21:53 METAR KELM 270153Z 00000KT 10SM OVC100 23/16 A2988 RMK AO2 SLP112 T02280161 =
2018-05-26 20:53 METAR KELM 270053Z 08005KT 10SM OVC120 25/16 A2986 RMK AO2 SLP106 T02500161 =
2018-05-26 19:53 METAR KELM 262353Z 04003KT 10SM BKN120 24/17 A2985 RMK AO2 SLP103 T02440172
                 10306 20244 53009 =
2018-05-26 18:53 METAR KELM 262253Z 27003KT 10SM BKN120 27/16 A2983 RMK AO2 SLP096 T02670156 =
2018-05-26 17:53 METAR KELM 262153Z 23005KT 10SM CLR 27/15 A2982 RMK AO2 SLP093 T02720150 =
2018-05-26 16:53 METAR KELM 262053Z 23007KT 10SM FEW120 28/13 A2982 RMK AO2 SLP093 T02780133
                 57004 =
2018-05-26 15:53 METAR KELM 261953Z 25009KT 10SM CLR 29/12 A2982 RMK AO2 SLP093 T02890122 =
2018-05-26 14:53 METAR KELM 261853Z 28005KT 10SM CLR 29/16 A2983 RMK AO2 SLP095 T02890156 =
2018-05-26 13:53 METAR KELM 261753Z 26010KT 10SM FEW080 29/14 A2983 RMK AO2 SLP096 T02890144
                 10294 20156 56005 =

Support USWX by starting your Amazon purchase here.